createdAt,value
2019-04-11T16:14:23.399Z,23.11
2019-04-11T16:15:23.418Z,23.17
2019-04-11T16:16:23.250Z,23.24
2019-04-11T16:18:28.152Z,23.24
2019-04-11T16:19:28.129Z,21.97
2019-04-11T16:20:28.104Z,20.06
2019-04-11T16:21:28.729Z,17.29
2019-04-11T16:22:28.987Z,14.13
2019-04-11T16:23:29.620Z,12.12
2019-04-11T16:24:28.589Z,11.41
2019-04-11T16:25:29.338Z,10.98
2019-04-11T16:26:28.040Z,10.66
2019-04-11T16:27:28.008Z,10.37
2019-04-11T16:28:28.013Z,10.04
2019-04-11T16:29:27.982Z,9.76
2019-04-11T16:30:27.994Z,9.60
2019-04-11T16:33:56.342Z,8.94
2019-04-11T16:34:48.932Z,8.90
2019-04-11T16:35:47.883Z,8.88
2019-04-11T16:36:47.741Z,8.78
2019-04-11T16:37:48.329Z,8.73
2019-04-11T16:38:49.852Z,8.69
2019-04-11T16:39:50.180Z,8.65
2019-04-11T16:40:47.784Z,8.68
2019-04-11T16:41:47.704Z,8.63
2019-04-11T16:42:47.667Z,8.55
2019-04-11T16:43:47.642Z,8.54
2019-04-11T16:44:47.813Z,8.55
2019-04-11T16:45:47.644Z,8.54
2019-04-11T16:46:47.622Z,8.53
2019-04-11T16:47:47.709Z,8.53
2019-04-11T16:48:47.582Z,8.51
2019-04-11T16:49:47.652Z,8.50
2019-04-11T16:50:47.612Z,8.51
2019-04-11T16:51:47.662Z,8.51
2019-04-11T16:52:47.545Z,8.51
2019-04-11T16:53:47.532Z,8.51
2019-04-11T16:54:47.533Z,8.48
2019-04-11T16:55:47.504Z,8.42
2019-04-11T16:56:47.493Z,8.42
2019-04-11T16:57:47.502Z,8.42
2019-04-11T16:58:50.077Z,8.39
2019-04-11T16:59:49.564Z,8.39
2019-04-11T17:00:52.162Z,8.42
2019-04-11T17:01:48.444Z,8.40
2019-04-11T17:02:47.462Z,8.37
2019-04-11T17:03:47.422Z,8.40
2019-04-11T17:04:47.412Z,8.37
2019-04-11T17:05:47.410Z,8.37
2019-04-11T17:06:47.420Z,8.32
2019-04-11T17:07:47.385Z,8.30
2019-04-11T17:08:47.393Z,8.28
2019-04-11T17:09:47.371Z,8.25
2019-04-11T17:10:47.345Z,8.18
2019-04-11T17:11:47.332Z,8.14
2019-04-11T17:12:47.342Z,8.07
2019-04-11T17:13:47.360Z,8.03
2019-04-11T17:14:47.312Z,8.00
2019-04-11T17:15:47.292Z,7.94
2019-04-11T17:16:47.292Z,7.97
2019-04-11T17:17:47.294Z,7.94
2019-04-11T17:18:47.402Z,7.94
2019-04-11T17:19:47.251Z,7.94
2019-04-11T17:20:47.243Z,7.96
2019-04-11T17:21:48.414Z,7.97
2019-04-11T17:22:48.855Z,7.96
2019-04-11T17:23:47.822Z,7.97
2019-04-11T17:24:48.119Z,7.94
2019-04-11T17:25:52.452Z,7.94
2019-04-11T17:26:48.192Z,7.90
2019-04-11T17:27:47.186Z,7.87
2019-04-11T17:28:47.199Z,7.79
2019-04-11T17:29:47.171Z,7.81
2019-04-11T17:30:47.205Z,7.81
2019-04-11T17:31:47.189Z,7.84
2019-04-11T17:32:47.112Z,7.84
2019-04-11T17:33:47.114Z,7.82
2019-04-11T17:34:47.154Z,7.79
2019-04-11T17:35:47.082Z,7.82
2019-04-11T17:36:47.076Z,7.81
2019-04-11T17:37:47.051Z,7.81
2019-04-11T17:38:47.054Z,7.79
2019-04-11T17:39:47.064Z,7.77
2019-04-11T17:40:47.021Z,7.75
2019-04-11T17:41:47.032Z,7.77
2019-04-11T17:42:47.034Z,7.79
2019-04-11T17:43:51.298Z,7.78
2019-04-11T17:44:47.094Z,7.77
2019-04-11T17:45:46.994Z,7.71
2019-04-11T17:49:43.056Z,7.62
2019-04-11T17:50:06.677Z,7.59
2019-04-11T17:51:09.440Z,7.56
2019-04-11T17:52:06.653Z,7.50
2019-04-11T17:53:06.646Z,7.52
2019-04-11T17:54:06.724Z,7.50
2019-04-11T17:55:06.613Z,7.49
2019-04-11T17:56:06.704Z,7.47
2019-04-11T17:57:06.608Z,7.47
2019-04-11T17:58:06.733Z,7.44
2019-04-11T17:59:06.593Z,7.41
2019-04-11T18:00:06.574Z,7.38
2019-04-11T18:01:06.543Z,7.38
2019-04-11T18:02:10.082Z,7.37
2019-04-11T18:03:06.532Z,7.34
2019-04-11T18:04:08.698Z,7.35
2019-04-11T18:05:06.583Z,7.35
2019-04-11T18:06:06.634Z,7.37
2019-04-11T18:07:06.484Z,7.38
2019-04-11T18:08:06.489Z,7.38
2019-04-11T18:09:06.543Z,7.38
2019-04-11T18:10:06.503Z,7.37
2019-04-11T18:11:06.472Z,7.34
2019-04-11T18:12:06.482Z,7.31
2019-04-11T18:13:06.545Z,7.27
2019-04-11T18:14:06.403Z,7.22
2019-04-11T18:15:07.576Z,7.20
2019-04-11T18:16:06.392Z,7.19
2019-04-11T18:17:06.395Z,7.19
2019-04-11T18:18:06.369Z,7.17
2019-04-11T18:19:06.703Z,7.15
2019-04-11T18:20:06.914Z,7.09
2019-04-11T18:21:07.336Z,7.08
2019-04-11T18:22:08.048Z,7.08
2019-04-11T18:23:06.312Z,7.09
2019-04-11T18:24:06.293Z,7.12
2019-04-11T18:25:06.303Z,7.12
2019-04-11T18:26:06.284Z,7.12
2019-04-11T18:27:06.272Z,7.13
2019-04-11T18:28:06.260Z,7.13
2019-04-11T18:29:06.262Z,7.13
2019-04-11T18:30:06.232Z,7.13
2019-04-11T18:31:06.372Z,7.12
2019-04-11T18:32:06.222Z,7.08
2019-04-11T18:33:06.192Z,7.07
2019-04-11T18:34:06.181Z,7.04
2019-04-11T18:35:06.201Z,6.99
2019-04-11T18:36:06.162Z,6.98
2019-04-11T18:37:06.199Z,6.97
2019-04-11T18:38:06.141Z,6.97
2019-04-11T18:39:06.151Z,6.97
2019-04-11T18:40:10.092Z,6.95
2019-04-11T18:41:06.112Z,6.90
2019-04-11T18:42:06.132Z,6.89
2019-04-11T18:43:06.155Z,6.87
2019-04-11T18:44:06.164Z,6.90
2019-04-11T18:45:06.070Z,6.89
2019-04-11T18:46:06.052Z,6.91
2019-04-11T18:47:06.092Z,6.91
2019-04-11T18:48:06.051Z,6.91
2019-04-11T18:49:06.041Z,6.91
2019-04-11T18:50:06.052Z,6.90
2019-04-11T18:51:06.000Z,6.90
2019-04-11T18:52:06.021Z,6.90
2019-04-11T18:53:06.013Z,6.89
2019-04-11T18:54:07.784Z,6.87
2019-04-11T18:55:05.964Z,6.86
2019-04-11T18:56:05.942Z,6.87
2019-04-11T18:57:05.976Z,6.89
2019-04-11T18:58:05.933Z,6.90
2019-04-11T18:59:05.910Z,6.87
2019-04-11T19:00:07.994Z,6.87
2019-04-11T19:01:08.834Z,6.84
2019-04-11T19:02:09.596Z,6.84
2019-04-11T19:03:08.078Z,6.86
2019-04-11T19:04:05.940Z,6.84
2019-04-11T19:05:05.992Z,6.87
2019-04-11T19:06:05.903Z,6.89
2019-04-11T19:07:05.834Z,6.89
2019-04-11T19:08:05.810Z,6.89
2019-04-11T19:09:05.880Z,6.89
2019-04-11T19:10:05.781Z,6.87
2019-04-11T19:11:05.789Z,6.87
2019-04-11T19:12:05.760Z,6.89
2019-04-11T19:13:05.750Z,6.87
2019-04-11T19:14:05.762Z,6.87
2019-04-11T19:15:05.870Z,6.87
2019-04-11T19:16:06.222Z,6.87
2019-04-11T19:17:06.111Z,6.90
2019-04-11T19:18:07.019Z,6.89
2019-04-11T19:19:05.841Z,6.87
2019-04-11T19:20:05.833Z,6.86
2019-04-11T19:21:05.670Z,6.86
2019-04-11T19:22:05.660Z,6.83
2019-04-11T19:23:07.659Z,6.83
2019-04-11T19:24:09.090Z,6.80
2019-04-11T19:25:06.642Z,6.79
2019-04-11T19:26:05.600Z,6.76
2019-04-11T19:27:05.602Z,6.77
2019-04-11T19:28:05.593Z,6.73
2019-04-11T19:29:06.286Z,6.76
2019-04-11T19:30:05.614Z,6.77
2019-04-11T19:31:05.602Z,6.79
2019-04-11T19:32:05.540Z,6.80
2019-04-11T19:33:05.541Z,6.80
2019-04-11T19:34:08.602Z,6.77
2019-04-11T19:35:06.000Z,6.77
2019-04-11T19:36:05.605Z,6.76
2019-04-11T19:37:05.519Z,6.79
2019-04-11T19:38:05.506Z,6.77
2019-04-11T19:39:05.491Z,6.77
2019-04-11T19:40:05.460Z,6.77
2019-04-11T19:41:05.441Z,6.79
2019-04-11T19:42:08.998Z,6.76
2019-04-11T19:43:06.710Z,6.79
2019-04-11T19:44:05.561Z,6.79
2019-04-11T19:45:05.483Z,6.77
2019-04-11T19:46:05.399Z,6.77
2019-04-11T19:47:05.378Z,6.73
2019-04-11T19:48:05.389Z,6.73
2019-04-11T19:49:05.446Z,6.71
2019-04-11T19:50:05.352Z,6.69
2019-04-11T19:51:05.439Z,6.71
2019-04-11T19:52:05.329Z,6.68
2019-04-11T19:53:05.430Z,6.66
2019-04-11T19:54:07.573Z,6.66
2019-04-11T19:55:05.454Z,6.65
2019-04-11T19:56:05.986Z,6.63
2019-04-11T19:57:05.296Z,6.65
2019-04-11T19:58:05.271Z,6.63
2019-04-11T19:59:05.249Z,6.66
2019-04-11T20:00:06.095Z,6.66
2019-04-11T20:01:05.252Z,6.68
2019-04-11T20:02:05.339Z,6.66
2019-04-11T20:03:05.308Z,6.68
2019-04-11T20:04:05.199Z,6.69
2019-04-11T20:05:05.229Z,6.68
2019-04-11T20:06:05.505Z,6.68
2019-04-11T20:07:05.159Z,6.65
2019-04-11T20:08:05.212Z,6.63
2019-04-11T20:09:05.138Z,6.59
2019-04-11T20:10:05.258Z,6.59
2019-04-11T20:11:05.128Z,6.59
2019-04-11T20:12:05.209Z,6.59
2019-04-11T20:13:05.139Z,6.61
2019-04-11T20:14:07.790Z,6.62
2019-04-11T20:15:05.713Z,6.63
2019-04-11T20:16:05.056Z,6.65
2019-04-11T20:17:05.089Z,6.66
2019-04-11T20:18:05.047Z,6.65
2019-04-11T20:19:05.032Z,6.63
2019-04-11T20:20:07.194Z,6.62
2019-04-11T20:21:07.309Z,6.61
2019-04-11T20:22:08.388Z,6.58
2019-04-11T20:23:04.987Z,6.58
2019-04-11T20:24:05.004Z,6.54
2019-04-11T20:25:04.961Z,6.53
2019-04-11T20:26:05.085Z,6.51
2019-04-11T20:27:04.928Z,6.48
2019-04-11T20:28:04.998Z,6.48
2019-04-11T20:29:04.921Z,6.50
2019-04-11T20:30:04.919Z,6.48
2019-04-11T20:31:04.908Z,6.47
2019-04-11T20:32:05.277Z,6.44
2019-04-11T20:33:04.886Z,6.43
2019-04-11T20:34:07.280Z,6.41
2019-04-11T20:35:09.297Z,6.40
2019-04-11T20:36:08.181Z,6.40
2019-04-11T20:37:04.826Z,6.41
2019-04-11T20:38:04.848Z,6.40
2019-04-11T20:39:04.808Z,6.40
2019-04-11T20:40:04.836Z,6.36
2019-04-11T20:41:04.778Z,6.36
2019-04-11T20:42:04.791Z,6.36
2019-04-11T20:43:04.775Z,6.36
2019-04-11T20:44:04.748Z,6.36
2019-04-11T20:45:04.746Z,6.36
2019-04-11T20:46:04.737Z,6.36
2019-04-11T20:47:04.780Z,6.36
2019-04-11T20:48:04.809Z,6.36
2019-04-11T20:49:04.687Z,6.36
2019-04-11T20:50:07.718Z,6.36
2019-04-11T20:51:04.668Z,6.36
2019-04-11T20:52:04.690Z,6.33
2019-04-11T20:53:12.718Z,6.33
2019-04-11T20:54:07.351Z,6.30
2019-04-11T20:55:08.982Z,6.30
2019-04-11T20:56:09.510Z,6.29
2019-04-11T20:57:05.677Z,6.29
2019-04-11T20:58:04.627Z,6.28
2019-04-11T20:59:04.597Z,6.28
2019-04-11T21:00:04.600Z,6.28
2019-04-11T21:01:04.586Z,6.29
2019-04-11T21:02:04.632Z,6.29
2019-04-11T21:03:04.653Z,6.29
2019-04-11T21:04:04.835Z,6.28
2019-04-11T21:05:04.532Z,6.25
2019-04-11T21:06:04.562Z,6.25
2019-04-11T21:07:04.686Z,6.25
2019-04-11T21:08:04.488Z,6.25
2019-04-11T21:09:04.488Z,6.25
2019-04-11T21:10:04.769Z,6.26
2019-04-11T21:11:05.235Z,6.25
2019-04-11T21:12:04.930Z,6.25
2019-04-11T21:13:06.903Z,6.22
2019-04-11T21:14:04.527Z,6.22
2019-04-11T21:15:04.416Z,6.21
2019-04-11T21:16:04.397Z,6.22
2019-04-11T21:17:04.396Z,6.19
2019-04-11T21:18:04.387Z,6.18
2019-04-11T21:19:04.385Z,6.18
2019-04-11T21:20:04.356Z,6.18
2019-04-11T21:21:04.346Z,6.13
2019-04-11T21:22:04.336Z,6.13
2019-04-11T21:23:04.390Z,6.11
2019-04-11T21:24:04.327Z,6.10
2019-04-11T21:25:04.326Z,6.11
2019-04-11T21:26:04.605Z,6.11
2019-04-11T21:27:04.335Z,6.13
2019-04-11T21:28:04.370Z,6.13
2019-04-11T21:29:04.405Z,6.13
2019-04-11T21:30:04.269Z,6.13
2019-04-11T21:31:04.234Z,6.10
2019-04-11T21:32:04.235Z,6.09
2019-04-11T21:33:04.291Z,6.07
2019-04-11T21:34:04.208Z,6.03
2019-04-11T21:35:04.246Z,6.00
2019-04-11T21:36:04.235Z,5.98
2019-04-11T21:37:04.305Z,5.96
2019-04-11T21:38:04.210Z,5.96
2019-04-11T21:39:04.461Z,5.96
2019-04-11T21:40:04.155Z,5.96
2019-04-11T21:41:06.100Z,5.96
2019-04-11T21:42:06.114Z,5.96
2019-04-11T21:43:06.144Z,5.95
2019-04-11T21:44:06.072Z,5.96
2019-04-11T21:45:06.252Z,5.93
2019-04-11T21:46:06.947Z,5.92
2019-04-11T21:47:04.118Z,5.91
2019-04-11T21:48:05.598Z,5.89
2019-04-11T21:49:06.300Z,5.91
2019-04-11T21:50:04.025Z,5.92
2019-04-11T21:51:04.025Z,5.92
2019-04-11T21:52:04.035Z,5.92
2019-04-11T21:53:04.034Z,5.92
2019-04-11T21:54:04.008Z,5.91
2019-04-11T21:55:03.990Z,5.92
2019-04-11T21:56:04.004Z,5.92
2019-04-11T21:57:03.968Z,5.92
2019-04-11T21:58:03.952Z,5.93
2019-04-11T21:59:03.956Z,5.93
2019-04-11T22:00:03.941Z,5.92
2019-04-11T22:01:03.905Z,5.93
2019-04-11T22:02:03.924Z,5.92
2019-04-11T22:03:06.559Z,5.92
2019-04-11T22:04:03.884Z,5.89
2019-04-11T22:05:03.873Z,5.88
2019-04-11T22:06:03.867Z,5.86
2019-04-11T22:07:03.844Z,5.88
2019-04-11T22:08:04.024Z,5.86
2019-04-11T22:09:05.076Z,5.85
2019-04-11T22:10:06.962Z,5.83
2019-04-11T22:11:03.796Z,5.83
2019-04-11T22:12:07.917Z,5.81
2019-04-11T22:13:03.791Z,5.77
2019-04-11T22:14:03.782Z,5.77
2019-04-11T22:15:03.764Z,5.74
2019-04-11T22:16:03.749Z,5.71
2019-04-11T22:17:03.755Z,5.68
2019-04-11T22:18:03.833Z,5.66
2019-04-11T22:19:03.732Z,5.66
2019-04-11T22:20:04.395Z,5.64
2019-04-11T22:21:03.743Z,5.63
2019-04-11T22:22:03.683Z,5.60
2019-04-11T22:23:03.683Z,5.59
2019-04-11T22:24:03.665Z,5.57
2019-04-11T22:25:03.653Z,5.56
2019-04-11T22:26:03.750Z,5.57
2019-04-11T22:27:03.701Z,5.60
2019-04-11T22:28:03.641Z,5.63
2019-04-11T22:29:03.627Z,5.66
2019-04-11T22:30:03.613Z,5.64
2019-04-11T22:31:03.586Z,5.64
2019-04-11T22:32:03.583Z,5.63
2019-04-11T22:33:03.573Z,5.57
2019-04-11T22:34:03.573Z,5.57
2019-04-11T22:35:03.543Z,5.56
2019-04-11T22:36:03.542Z,5.56
2019-04-11T22:37:03.526Z,5.53
2019-04-11T22:38:03.526Z,5.53
2019-04-11T22:39:03.582Z,5.52
2019-04-11T22:40:03.490Z,5.52
2019-04-11T22:41:03.512Z,5.52
2019-04-11T22:42:03.489Z,5.53
2019-04-11T22:43:07.451Z,5.55
2019-04-11T22:44:03.474Z,5.55
2019-04-11T22:45:03.452Z,5.53
2019-04-11T22:46:03.433Z,5.55
2019-04-11T22:47:03.420Z,5.53
2019-04-11T22:48:03.435Z,5.53
2019-04-11T22:49:03.395Z,5.52
2019-04-11T22:50:03.406Z,5.53
2019-04-11T22:51:03.379Z,5.52
2019-04-11T22:52:03.371Z,5.52
2019-04-11T22:53:03.367Z,5.50
2019-04-11T22:54:03.343Z,5.49
2019-04-11T22:55:03.344Z,5.50
2019-04-11T22:56:03.321Z,5.49
2019-04-11T22:57:03.303Z,5.50
2019-04-11T22:58:03.292Z,5.50
2019-04-11T22:59:03.280Z,5.52
2019-04-11T23:00:03.293Z,5.53
2019-04-11T23:01:03.290Z,5.53
2019-04-11T23:02:03.251Z,5.56
2019-04-11T23:03:03.244Z,5.56
2019-04-11T23:04:03.243Z,5.56
2019-04-11T23:05:03.231Z,5.55
2019-04-11T23:06:03.205Z,5.55
2019-04-11T23:07:03.221Z,5.55
2019-04-11T23:08:03.191Z,5.56
2019-04-11T23:09:03.185Z,5.55
2019-04-11T23:10:03.186Z,5.55
2019-04-11T23:11:03.191Z,5.53
2019-04-11T23:12:03.141Z,5.53
2019-04-11T23:13:03.131Z,5.53
2019-04-11T23:14:03.121Z,5.55
2019-04-11T23:15:03.111Z,5.56
2019-04-11T23:16:03.100Z,5.57
2019-04-11T23:17:03.110Z,5.56
2019-04-11T23:18:03.100Z,5.59
2019-04-11T23:19:03.068Z,5.59
2019-04-11T23:20:03.074Z,5.59
2019-04-11T23:21:03.043Z,5.59
2019-04-11T23:22:03.032Z,5.59
2019-04-11T23:23:03.040Z,5.57
2019-04-11T23:24:11.457Z,5.56
2019-04-11T23:25:04.010Z,5.55
2019-04-11T23:26:03.046Z,5.56
2019-04-11T23:27:02.990Z,5.56
2019-04-11T23:28:02.989Z,5.56
2019-04-11T23:29:02.959Z,5.55
2019-04-11T23:30:02.949Z,5.55
2019-04-11T23:31:02.951Z,5.55
2019-04-11T23:32:02.941Z,5.53
2019-04-11T23:33:02.923Z,5.55
2019-04-11T23:34:02.945Z,5.53
2019-04-11T23:35:02.889Z,5.53
2019-04-11T23:36:03.766Z,5.50
2019-04-11T23:37:02.885Z,5.50
2019-04-11T23:38:02.864Z,5.50
2019-04-11T23:39:02.858Z,5.49
2019-04-11T23:40:02.860Z,5.49
2019-04-11T23:41:02.849Z,5.49
2019-04-11T23:42:02.829Z,5.48
2019-04-11T23:43:02.819Z,5.48
2019-04-11T23:44:02.820Z,5.48
2019-04-11T23:45:02.791Z,5.48
2019-04-11T23:46:02.769Z,5.46
2019-04-11T23:47:02.772Z,5.48
2019-04-11T23:48:02.760Z,5.48
2019-04-11T23:49:02.748Z,5.45
2019-04-11T23:50:02.738Z,5.43
2019-04-11T23:51:02.750Z,5.43
2019-04-11T23:52:02.721Z,5.40
2019-04-11T23:53:02.708Z,5.38
2019-04-11T23:54:02.707Z,5.38
2019-04-11T23:55:02.711Z,5.38
2019-04-11T23:56:02.785Z,5.37
2019-04-11T23:57:02.662Z,5.38
2019-04-11T23:58:02.651Z,5.38
2019-04-11T23:59:02.731Z,5.37
